Weather observations for the past three days for
San Luis Obispo, San Luis Obispo County-Mc Chesney Field
Metric (Imperial)
Date Time (pdt) Wind (kph) Vis. (km) Weather Sky Cond. Temperature (ºC) Relative Humidity Wind Chill (°C) Heat Index (°C) Pressure Precipitation (cm)
Air Dwpt 6 hour altimeter (cm) sea level (mb) 1 hr 3 hr 6 hr
Max. Min.
08 15:56 NW 30 16.09 Fair CLR 19.4 11.7 61% 76.12 1014.7
08 14:56 NW 31 16.09 Fair CLR 20 11.7 59% 76.15 1015.2
08 13:56 NW 28 16.09 Fair CLR 20.6 12.2 59% 76.2 1015.5
08 12:56 NW 19 16.09 Fair CLR 21.1 12.8 59% 76.23 1016.1
08 11:56 NW 9 16.09 Fair CLR 20.6 12.2 59% 76.28 1016.6
08 10:56 W 11 16.09 Fair CLR 18.9 11.7 18.9 11.1 63% 76.3 1017.0
08 09:56 Vrbl 6 16.09 Fair CLR 15.6 11.1 75% 76.35 1017.7
08 08:56 NE 7 16.09 Mostly Cloudy BKN010 13.3 10.6 84% 76.35 1017.8
08 07:56 NW 17 14.48 Overcast OVC006 11.7 10 89% 76.35 1017.8
08 06:56 NW 17 9.66 Fog/Mist OVC004 11.1 10.6 97% 76.33 1017.6
08 05:56 NW 15 6.44 Fog/Mist OVC003 11.7 11.1 96% 76.3 1017.2
08 04:56 NW 15 4.83 Fog/Mist OVC003 11.7 11.1 12.2 11.7 96% 76.28 1016.9
08 03:56 NW 15 8.05 Fog/Mist OVC004 11.7 11.1 96% 76.28 1016.7
08 02:56 NW 15 12.87 Overcast OVC005 11.7 11.1 96% 76.28 1016.7
08 01:56 NW 9 14.48 Overcast OVC006 12.2 11.1 93% 76.28 1016.8
08 00:56 NW 7 14.48 Mostly Cloudy BKN006 12.2 11.1 93% 76.3 1017.0
07 23:56 NW 7 12.87 Partly Cloudy SCT006 11.7 11.1 96% 76.3 1017.0
07 22:56 W 6 16.09 Fair CLR 12.2 11.1 17.2 12.2 93% 76.28 1016.7
07 21:56 NW 11 14.48 Partly Cloudy SCT008 12.2 11.1 93% 76.28 1017.0
07 20:56 NW 15 16.09 Overcast OVC009 12.8 11.1 90% 76.28 1016.7
07 19:56 NW 19 14.48 A Few Clouds FEW008 12.8 11.1 90% 76.23 1016.0
07 18:56 NW 26 16.09 Fair CLR 14.4 11.1 81% 76.2 1015.9
07 17:56 NW 33 16.09 Fair and Breezy CLR 16.1 11.7 75% 76.17 1015.4
07 16:56 NW 30 G 41 16.09 Fair CLR 17.2 11.7 21.1 16.7 70% 76.15 1015.1
07 15:56 NW 28 16.09 Fair CLR 17.8 12.8 73% 76.15 1015.2
07 14:56 NW 30 G 41 16.09 Fair CLR 19.4 12.8 66% 76.17 1015.3
07 13:56 NW 26 16.09 Fair CLR 20.6 12.8 61% 76.23 1015.9
07 12:56 NW 33 16.09 Fair and Breezy CLR 19.4 13.3 68% 76.23 1016.1
07 11:56 NW 31 16.09 Fair CLR 18.9 13.3 70% 76.23 1016.2
07 10:56 NW 19 16.09 Fair CLR 20.6 13.3 20.6 11.7 63% 76.25 1016.5
07 09:56 NW 17 16.09 Fair CLR 17.2 12.8 76% 76.28 1016.8
07 08:56 NW 17 16.09 Fair CLR 15 12.2 83% 76.3 1017.2
07 07:56 NW 17 8.05 Fog/Mist OVC002 12.8 12.2 96% 76.3 1017.2
07 06:56 NW 13 2.82 Fog/Mist OVC002 11.7 11.7 100% 76.28 1016.9
07 05:56 NW 11 4.83 Fog/Mist OVC002 11.7 11.7 100% 76.28 1016.7
07 04:56 NW 13 6.44 Fog/Mist OVC002 11.7 11.1 13.3 11.7 96% 76.28 1016.7
07 03:56 NW 7 9.66 Fog/Mist OVC003 12.2 11.7 97% 76.28 1016.9
07 02:56 NW 7 12.87 Overcast OVC005 12.2 11.7 97% 76.33 1017.3
07 01:56 W 9 16.09 Overcast OVC006 12.8 11.7 93% 76.35 1017.8
07 00:56 NW 9 16.09 Overcast OVC006 13.3 11.7 90% 76.38 1018.2
06 23:56 NW 13 16.09 Overcast OVC006 13.3 11.7 90% 76.4 1018.4
06 22:56 NW 15 16.09 Overcast OVC008 13.3 11.7 18.9 13.3 90% 76.4 1018.4
06 21:56 NW 17 16.09 Overcast OVC009 13.3 11.7 90% 76.43 1018.6
06 20:56 NW 15 16.09 Fair CLR 13.3 11.7 90% 76.38 1018.1
06 19:56 NW 26 16.09 Fair CLR 13.9 11.7 87% 76.35 1017.7
06 18:56 NW 30 16.09 Fair CLR 16.1 11.1 72% 76.3 1017.2
06 17:56 NW 31 16.09 Fair CLR 17.8 11.1 65% 76.3 1017.3
06 16:56 NW 28 G 44 16.09 Fair CLR 18.9 11.1 22.2 18.9 61% 76.3 1017.0
06 15:56 NW 30 16.09 Fair CLR 19.4 11.1 59% 76.28 1016.9
06 14:56 NW 35 G 48 16.09 Fair and Breezy CLR 19.4 11.7 61% 76.3 1017.3
06 13:56 NW 35 G 46 16.09 Fair and Breezy CLR 19.4 12.2 63% 76.35 1017.8
06 12:56 NW 31 16.09 Fair CLR 20 12.2 61% 76.35 1017.8
06 11:56 NW 26 16.09 Fair CLR 21.1 11.7 55% 76.38 1018.0
06 10:56 Calm 16.09 Fair CLR 20.6 9.4 21.7 7.8 49% 76.4 1018.4
06 09:56 Calm 16.09 Fair CLR 20 10.6 55% 76.4 1018.5
06 08:56 Calm 16.09 Fair CLR 17.2 11.7 70% 76.43 1018.6
06 07:56 Calm 16.09 Fair CLR 12.2 10 87% 76.45 1019.2
06 06:56 Calm 16.09 Fair CLR 9.4 8.3 93% 76.43 1018.7
06 05:56 Calm 16.09 Fair CLR 8.3 7.2 93% 76.38 1018.3
06 04:56 SE 6 16.09 Fair CLR 8.9 7.8 12.8 8.9 93% 76.38 1018.3
06 03:56 SE 6 16.09 Fair CLR 9.4 7.8 90% 76.38 1018.3
06 02:56 Calm 16.09 Fair CLR 10 8.9 93% 76.38 1018.1
06 01:56 E 6 16.09 Fair CLR 10.6 9.4 92% 76.4 1018.4
06 00:56 NW 7 16.09 Fair CLR 12.2 10.6 90% 76.4 1018.5
05 23:56 NW 15 16.09 Mostly Cloudy BKN010 12.8 11.1 90% 76.38 1018.1
05 22:56 NW 13 16.09 Mostly Cloudy BKN012 12.8 10.6 16.7 12.8 87% 76.35 1017.7
05 21:56 NW 11 16.09 Overcast OVC016 13.3 11.1 87% 76.33 1017.5
05 20:56 NW 11 16.09 Mostly Cloudy BKN018 13.3 11.1 87% 76.28 1016.8
05 19:56 NW 26 16.09 Mostly Cloudy BKN017 13.9 10.6 81% 76.2 1015.8
05 18:56 NW 22 16.09 Fair CLR 14.4 10.6 78% 76.17 1015.5
05 17:56 NW 33 16.09 Mostly Cloudy and Breezy BKN090 16.1 9.4 65% 76.15 1015.2
05 16:56 NW 31 G 43 16.09 Mostly Cloudy BKN095 16.7 9.4 18.9 16.7 62% 76.12 1014.9
Date Time (pdt) Wind (kph) Vis. (km) Weather Sky Cond. Air Dwpt Max. Min. Relative Humidity Wind Chill (°C) Heat Index (°C) altimeter (cm) sea level (mb) 1 hr 3 hr 6 hr
6 hour
Temperature (ºC) Pressure Precipitation (cm)